createdAt,value
2018-06-16T00:00:26.400Z,4.77
2018-06-16T00:03:01.732Z,4.30
2018-06-16T00:05:33.308Z,3.87
2018-06-16T00:08:12.742Z,3.20
2018-06-16T00:10:50.645Z,3.77
2018-06-16T00:13:35.138Z,2.50
2018-06-16T00:16:18.791Z,2.53
2018-06-16T00:18:50.910Z,3.80
2018-06-16T00:21:25.538Z,5.80
2018-06-16T00:24:00.881Z,4.77
2018-06-16T00:26:47.712Z,3.37
2018-06-16T00:29:21.408Z,3.37
2018-06-16T00:32:02.386Z,3.73
2018-06-16T00:34:40.385Z,3.27
2018-06-16T00:37:22.722Z,2.53
2018-06-16T00:39:58.959Z,3.63
2018-06-16T00:42:31.332Z,2.30
2018-06-16T00:45:03.709Z,3.10
2018-06-16T00:47:49.790Z,2.60
2018-06-16T00:50:24.736Z,2.83
2018-06-16T00:53:03.739Z,3.30
2018-06-16T00:55:40.446Z,2.50
2018-06-16T00:58:14.867Z,2.60
2018-06-16T01:00:53.797Z,4.07
2018-06-16T01:03:31.760Z,2.83
2018-06-16T01:06:11.961Z,3.47
2018-06-16T01:08:49.769Z,3.77
2018-06-16T01:11:27.758Z,2.50
2018-06-16T01:14:02.602Z,2.30
2018-06-16T01:16:40.301Z,2.50
2018-06-16T01:19:25.768Z,2.67
2018-06-16T01:22:02.160Z,2.53
2018-06-16T01:24:43.444Z,2.40
2018-06-16T01:27:24.782Z,2.70
2018-06-16T01:30:00.478Z,2.40
2018-06-16T01:32:40.789Z,4.07
2018-06-16T01:35:20.591Z,2.73
2018-06-16T01:38:00.340Z,2.60
2018-06-16T01:40:32.502Z,2.93
2018-06-16T01:43:09.279Z,2.57
2018-06-16T01:45:43.498Z,4.13
2018-06-16T01:48:21.799Z,3.87
2018-06-16T01:50:58.283Z,2.60
2018-06-16T01:53:33.626Z,3.07
2018-06-16T01:56:08.152Z,2.40
2018-06-16T01:58:46.578Z,2.63
2018-06-16T02:01:21.917Z,2.40
2018-06-16T02:03:56.841Z,3.93
2018-06-16T02:06:28.506Z,2.73
2018-06-16T02:09:14.500Z,3.33
2018-06-16T02:11:54.254Z,2.50
2018-06-16T02:14:27.441Z,3.03
2018-06-16T02:17:04.021Z,2.37
2018-06-16T02:19:45.099Z,2.23
2018-06-16T02:22:31.505Z,2.27
2018-06-16T02:25:07.055Z,2.00
2018-06-16T02:27:46.794Z,2.13
2018-06-16T02:30:26.953Z,2.33
2018-06-16T02:33:06.501Z,2.73
2018-06-16T02:35:45.532Z,2.50
2018-06-16T02:38:23.852Z,2.20
2018-06-16T02:40:55.904Z,2.30
2018-06-16T02:43:32.480Z,3.03
2018-06-16T02:46:06.499Z,2.67
2018-06-16T02:48:41.863Z,3.53
2018-06-16T02:51:20.460Z,5.17
2018-06-16T02:53:52.630Z,3.03
2018-06-16T02:56:26.538Z,2.43
2018-06-16T02:59:07.108Z,2.63
2018-06-16T03:01:43.375Z,2.30
2018-06-16T03:04:15.234Z,2.70
2018-06-16T03:06:47.608Z,2.40
2018-06-16T03:09:27.887Z,2.83
2018-06-16T03:11:59.928Z,2.50
2018-06-16T03:14:39.991Z,3.77
2018-06-16T03:17:14.311Z,2.40
2018-06-16T03:19:46.895Z,2.57
2018-06-16T03:22:24.284Z,2.23
2018-06-16T03:25:06.599Z,3.50
2018-06-16T03:27:52.908Z,2.40
2018-06-16T03:30:24.349Z,3.40
2018-06-16T03:33:02.924Z,3.90
2018-06-16T03:35:36.674Z,2.57
2018-06-16T03:38:16.917Z,2.57
2018-06-16T03:40:49.923Z,3.03
2018-06-16T03:43:28.923Z,3.23
2018-06-16T03:46:08.598Z,3.20
2018-06-16T03:48:44.352Z,2.47
2018-06-16T03:51:26.965Z,3.13
2018-06-16T03:54:06.406Z,2.60
2018-06-16T03:56:38.277Z,2.53
2018-06-16T03:59:10.132Z,2.80
2018-06-16T04:01:43.327Z,3.13
2018-06-16T04:04:21.340Z,2.80
2018-06-16T04:07:01.599Z,2.63
2018-06-16T04:09:43.399Z,3.57
2018-06-16T04:12:17.607Z,2.93
2018-06-16T04:14:53.047Z,2.80
2018-06-16T04:17:25.736Z,4.30
2018-06-16T04:20:04.664Z,3.10
2018-06-16T04:22:46.041Z,2.83
2018-06-16T04:25:22.623Z,3.33
2018-06-16T04:28:04.725Z,3.00
2018-06-16T04:30:40.385Z,2.70
2018-06-16T04:33:15.326Z,2.73
2018-06-16T04:35:53.325Z,3.20
2018-06-16T04:38:34.908Z,2.40
2018-06-16T04:41:06.983Z,3.40
2018-06-16T04:43:43.660Z,2.80
2018-06-16T04:46:20.335Z,2.60
2018-06-16T04:48:52.709Z,2.77
2018-06-16T04:51:30.204Z,2.77
2018-06-16T04:54:10.159Z,2.93
2018-06-16T04:56:55.533Z,2.93
2018-06-16T04:59:28.007Z,3.53
2018-06-16T05:02:11.554Z,2.60
2018-06-16T05:04:46.588Z,2.83
2018-06-16T05:07:20.492Z,2.63
2018-06-16T05:09:58.396Z,2.60
2018-06-16T05:12:35.788Z,2.50
2018-06-16T05:15:12.983Z,3.00
2018-06-16T05:17:54.875Z,2.80
2018-06-16T05:20:31.344Z,3.00
2018-06-16T05:23:06.893Z,3.27
2018-06-16T05:25:42.287Z,2.40
2018-06-16T05:28:15.432Z,2.33
2018-06-16T05:30:47.294Z,2.70
2018-06-16T05:33:27.561Z,2.90
2018-06-16T05:36:06.586Z,2.90
2018-06-16T05:38:45.062Z,3.10
2018-06-16T05:41:17.479Z,3.50
2018-06-16T05:43:52.215Z,2.73
2018-06-16T05:46:30.108Z,2.93
2018-06-16T05:49:08.840Z,3.03
2018-06-16T05:51:40.495Z,2.90
2018-06-16T05:54:12.256Z,2.70
2018-06-16T05:56:52.521Z,2.70
2018-06-16T05:59:32.576Z,2.70
2018-06-16T06:02:06.788Z,2.53
2018-06-16T06:04:40.698Z,2.77
2018-06-16T06:07:17.073Z,3.13
2018-06-16T06:09:54.253Z,2.50
2018-06-16T06:12:27.243Z,3.33
2018-06-16T06:15:05.562Z,2.67
2018-06-16T06:17:44.281Z,3.03
2018-06-16T06:20:25.462Z,2.57
2018-06-16T06:23:03.571Z,2.53
2018-06-16T06:25:38.302Z,2.73
2018-06-16T06:28:10.471Z,2.90
2018-06-16T06:30:49.914Z,2.77
2018-06-16T06:33:22.491Z,2.57
2018-06-16T06:36:03.109Z,2.60
2018-06-16T06:38:40.561Z,3.27
2018-06-16T06:41:16.724Z,2.80
2018-06-16T06:43:56.466Z,2.70
2018-06-16T06:46:40.121Z,2.77
2018-06-16T06:49:17.803Z,10.57
2018-06-16T06:51:51.921Z,19.90
2018-06-16T06:54:24.813Z,11.73
2018-06-16T06:56:56.259Z,7.77
2018-06-16T06:59:34.477Z,4.50
2018-06-16T07:02:07.568Z,6.50
2018-06-16T07:04:39.936Z,9.47
2018-06-16T07:07:12.618Z,6.20
2018-06-16T07:09:42.330Z,3.93
2018-06-16T07:12:12.349Z,5.17
2018-06-16T07:15:16.157Z,3.33
2018-06-16T07:17:46.798Z,3.10
2018-06-16T07:20:17.347Z,2.77
2018-06-16T07:22:52.264Z,2.53
2018-06-16T07:25:31.607Z,2.67
2018-06-16T07:28:10.017Z,2.47
2018-06-16T07:30:43.006Z,2.50
2018-06-16T07:33:23.883Z,2.77
2018-06-16T07:35:56.877Z,2.20
2018-06-16T07:38:33.135Z,2.60
2018-06-16T07:41:05.007Z,3.00
2018-06-16T07:43:40.649Z,2.50
2018-06-16T07:46:18.869Z,3.20
2018-06-16T07:48:52.387Z,2.80
2018-06-16T07:51:35.194Z,3.00
2018-06-16T07:54:13.086Z,2.60
2018-06-16T07:56:53.653Z,2.43
2018-06-16T07:59:34.204Z,2.50
2018-06-16T08:02:11.717Z,3.70
2018-06-16T08:04:54.205Z,2.60
2018-06-16T08:07:39.921Z,2.73
2018-06-16T08:10:14.031Z,3.10
2018-06-16T08:12:53.212Z,2.60
2018-06-16T08:15:37.416Z,2.70
2018-06-16T08:18:07.564Z,2.77
2018-06-16T08:20:37.975Z,2.60
2018-06-16T08:23:08.500Z,2.90
2018-06-16T08:25:38.929Z,2.63
2018-06-16T08:28:09.364Z,2.60
2018-06-16T08:30:39.688Z,2.63
2018-06-16T08:33:10.222Z,4.30
2018-06-16T08:35:40.241Z,2.47
2018-06-16T08:38:10.263Z,3.57
2018-06-16T08:40:41.196Z,2.77
2018-06-16T08:43:11.047Z,2.60
2018-06-16T08:45:40.936Z,3.10
2018-06-16T08:48:11.772Z,3.17
2018-06-16T08:50:41.786Z,2.33
2018-06-16T08:53:12.112Z,2.73
2018-06-16T08:55:42.515Z,2.50
2018-06-16T08:58:13.182Z,2.27
2018-06-16T09:00:43.706Z,3.63
2018-06-16T09:03:13.725Z,3.17
2018-06-16T09:05:44.052Z,2.87
2018-06-16T09:08:14.071Z,2.60
2018-06-16T09:10:45.123Z,2.73
2018-06-16T09:13:14.833Z,3.10
2018-06-16T09:15:47.714Z,2.40
2018-06-16T09:18:18.450Z,2.43
2018-06-16T09:20:48.273Z,2.57
2018-06-16T09:23:18.285Z,2.40
2018-06-16T09:25:48.617Z,2.47
2018-06-16T09:28:19.040Z,2.50
2018-06-16T09:30:49.475Z,2.37
2018-06-16T09:33:19.376Z,2.50
2018-06-16T09:35:49.822Z,2.40
2018-06-16T09:38:19.834Z,2.80
2018-06-16T09:40:50.468Z,3.33
2018-06-16T09:43:20.906Z,2.60
2018-06-16T09:45:51.325Z,2.30
2018-06-16T09:48:21.339Z,2.90
2018-06-16T09:50:51.880Z,3.17
2018-06-16T09:53:21.486Z,2.63
2018-06-16T09:55:51.506Z,2.57
2018-06-16T09:58:21.533Z,2.50
2018-06-16T10:00:52.268Z,2.70
2018-06-16T10:03:22.324Z,2.50
2018-06-16T10:05:53.120Z,2.07
2018-06-16T10:08:22.839Z,2.20
2018-06-16T10:10:52.955Z,2.70
2018-06-16T10:13:22.871Z,4.33
2018-06-16T10:15:57.970Z,2.50
2018-06-16T10:18:28.550Z,2.80
2018-06-16T10:20:58.050Z,3.40
2018-06-16T10:23:28.687Z,2.60
2018-06-16T10:25:58.505Z,2.67
2018-06-16T10:28:28.406Z,3.17
2018-06-16T10:30:59.158Z,2.50
2018-06-16T10:33:29.365Z,3.00
2018-06-16T10:35:59.498Z,2.50
2018-06-16T10:38:29.518Z,3.17
2018-06-16T10:40:59.536Z,2.40
2018-06-16T10:43:29.966Z,3.07
2018-06-16T10:46:00.090Z,3.23
2018-06-16T10:48:30.312Z,2.80
2018-06-16T10:51:00.426Z,3.53
2018-06-16T10:53:30.964Z,2.77
2018-06-16T10:56:01.505Z,2.20
2018-06-16T10:58:32.136Z,2.50
2018-06-16T11:01:02.365Z,3.13
2018-06-16T11:03:33.398Z,4.23
2018-06-16T11:06:03.118Z,4.03
2018-06-16T11:08:33.334Z,4.37
2018-06-16T11:11:03.353Z,2.73
2018-06-16T11:13:33.579Z,2.63
2018-06-16T11:16:15.892Z,2.23
2018-06-16T11:18:45.913Z,3.00
2018-06-16T11:21:16.335Z,2.30
2018-06-16T11:23:46.048Z,2.10
2018-06-16T11:26:16.067Z,2.30
2018-06-16T11:28:46.393Z,3.67
2018-06-16T11:31:16.311Z,2.20
2018-06-16T11:33:46.233Z,2.20
2018-06-16T11:36:16.563Z,2.73
2018-06-16T11:38:46.458Z,2.43
2018-06-16T11:41:16.702Z,3.57
2018-06-16T11:43:46.612Z,4.77
2018-06-16T11:46:16.631Z,2.33
2018-06-16T11:48:46.706Z,2.57
2018-06-16T11:51:16.159Z,2.50
2018-06-16T11:53:45.985Z,3.00
2018-06-16T11:56:16.717Z,1.93
2018-06-16T11:58:50.021Z,1.87
2018-06-16T12:01:36.461Z,2.20
2018-06-16T12:04:15.849Z,4.40
2018-06-16T12:06:53.464Z,2.60
2018-06-16T12:09:26.182Z,2.87
2018-06-16T12:12:02.471Z,1.87
2018-06-16T12:17:50.264Z,2.47
2018-06-16T12:20:25.479Z,2.37
2018-06-16T12:23:09.444Z,2.57
2018-06-16T12:25:41.508Z,3.00
2018-06-16T12:28:13.175Z,3.27
2018-06-16T12:30:44.423Z,2.50
2018-06-16T12:33:14.537Z,2.43
2018-06-16T12:35:45.072Z,2.20
2018-06-16T12:38:14.989Z,2.60
2018-06-16T12:40:44.701Z,2.50
2018-06-16T12:43:15.033Z,3.40
2018-06-16T12:45:46.172Z,2.47
2018-06-16T12:48:16.809Z,2.33
2018-06-16T12:50:46.883Z,2.60
2018-06-16T12:53:17.555Z,2.07
2018-06-16T12:55:47.175Z,2.70
2018-06-16T12:58:18.026Z,2.70
2018-06-16T13:00:48.538Z,2.20
2018-06-16T13:03:19.277Z,2.67
2018-06-16T13:05:49.714Z,2.30
2018-06-16T13:08:20.041Z,2.70
2018-06-16T13:10:50.060Z,2.27
2018-06-16T13:13:20.481Z,2.40
2018-06-16T13:19:05.068Z,4.40
2018-06-16T13:21:34.884Z,4.87
2018-06-16T13:24:05.610Z,2.37
2018-06-16T13:26:35.746Z,2.50
2018-06-16T13:29:05.559Z,2.50
2018-06-16T13:31:35.580Z,2.77
2018-06-16T13:34:06.003Z,2.87
2018-06-16T13:36:38.793Z,3.07
2018-06-16T13:39:19.250Z,3.60
2018-06-16T13:41:54.703Z,3.53
2018-06-16T13:44:33.940Z,2.80
2018-06-16T13:47:04.976Z,2.30
2018-06-16T13:49:37.044Z,2.77
2018-06-16T13:52:08.190Z,2.60
2018-06-16T13:54:48.961Z,2.90
2018-06-16T13:57:23.589Z,3.60
2018-06-16T14:00:00.162Z,3.58
2018-06-16T14:02:33.458Z,2.37
2018-06-16T14:05:06.344Z,3.40
2018-06-16T14:07:44.869Z,2.57
2018-06-16T14:10:18.775Z,2.20
2018-06-16T14:12:56.180Z,2.20
2018-06-16T14:19:08.912Z,2.77
2018-06-16T14:21:45.384Z,2.50
2018-06-16T14:24:20.612Z,3.53
2018-06-16T14:26:53.826Z,2.53
2018-06-16T14:29:29.778Z,2.83
2018-06-16T14:32:02.153Z,2.80
2018-06-16T14:34:41.392Z,3.97
2018-06-16T14:37:16.331Z,2.40
2018-06-16T14:39:49.003Z,2.80
2018-06-16T14:42:24.452Z,5.37
2018-06-16T14:45:00.314Z,2.95
2018-06-16T14:47:32.272Z,2.42
2018-06-16T14:50:08.950Z,2.60
2018-06-16T14:52:45.012Z,2.72
2018-06-16T14:55:22.609Z,2.17
2018-06-16T14:58:01.331Z,3.33
2018-06-16T15:00:36.066Z,2.45
2018-06-16T15:03:14.477Z,2.85
2018-06-16T15:05:48.898Z,2.30
2018-06-16T15:08:25.779Z,2.52
2018-06-16T15:10:59.589Z,2.27
2018-06-16T15:13:36.061Z,2.47
2018-06-16T15:19:39.673Z,2.20
2018-06-16T15:22:16.263Z,2.13
2018-06-16T15:24:54.373Z,2.27
2018-06-16T15:27:33.915Z,4.03
2018-06-16T15:30:12.536Z,2.70
2018-06-16T15:32:51.361Z,2.05
2018-06-16T15:35:25.178Z,2.07
2018-06-16T15:38:00.617Z,2.27
2018-06-16T15:40:43.735Z,2.10
2018-06-16T15:43:18.273Z,2.07
2018-06-16T15:45:57.094Z,2.73
2018-06-16T15:48:30.904Z,2.62
2018-06-16T15:51:11.473Z,2.42
2018-06-16T15:53:46.711Z,2.12
2018-06-16T15:56:21.853Z,2.43
2018-06-16T15:59:02.425Z,2.52
2018-06-16T16:01:38.890Z,3.47
2018-06-16T16:04:17.412Z,2.70
2018-06-16T16:06:54.296Z,2.40
2018-06-16T16:09:32.093Z,2.22
2018-06-16T16:12:08.357Z,2.47
2018-06-16T16:14:59.528Z,2.00
2018-06-16T16:17:34.202Z,3.72
2018-06-16T16:20:12.740Z,2.30
2018-06-16T16:22:51.956Z,2.53
2018-06-16T16:25:29.388Z,2.50
2018-06-16T16:27:58.963Z,2.80
2018-06-16T16:30:28.990Z,2.92
2018-06-16T16:32:58.903Z,2.33
2018-06-16T16:35:28.808Z,2.08
2018-06-16T16:37:59.350Z,2.37
2018-06-16T16:40:29.676Z,2.50
2018-06-16T16:43:00.209Z,2.80
2018-06-16T16:45:30.740Z,2.87
2018-06-16T16:48:00.957Z,2.40
2018-06-16T16:50:31.902Z,2.58
2018-06-16T16:53:02.231Z,2.22
2018-06-16T16:55:32.756Z,3.02
2018-06-16T16:58:02.469Z,2.70
2018-06-16T17:00:33.151Z,3.07
2018-06-16T17:03:03.736Z,2.33
2018-06-16T17:05:33.961Z,4.03
2018-06-16T17:08:03.980Z,3.20
2018-06-16T17:10:34.307Z,2.40
2018-06-16T17:13:04.435Z,2.57
2018-06-16T17:19:00.489Z,2.43
2018-06-16T17:21:30.603Z,2.72
2018-06-16T17:24:00.528Z,2.40
2018-06-16T17:26:30.750Z,2.77
2018-06-16T17:29:01.379Z,2.97
2018-06-16T17:31:30.989Z,2.87
2018-06-16T17:34:01.322Z,2.73
2018-06-16T17:36:31.437Z,4.43
2018-06-16T17:39:01.355Z,4.53
2018-06-16T17:41:31.784Z,3.00
2018-06-16T17:44:02.314Z,3.13
2018-06-16T17:46:31.912Z,3.23
2018-06-16T17:49:02.149Z,3.10
2018-06-16T17:51:32.577Z,3.03
2018-06-16T17:54:03.006Z,2.80
2018-06-16T17:56:33.436Z,6.43
2018-06-16T17:59:03.563Z,3.40
2018-06-16T18:01:33.987Z,2.67
2018-06-16T18:04:04.525Z,4.37
2018-06-16T18:06:35.057Z,3.00
2018-06-16T18:09:08.039Z,3.07
2018-06-16T18:11:38.064Z,4.73
2018-06-16T18:14:07.671Z,4.10
2018-06-16T18:17:29.196Z,3.70
2018-06-16T18:19:59.015Z,3.60
2018-06-16T18:22:29.338Z,3.87
2018-06-16T18:25:00.082Z,4.20
2018-06-16T18:27:29.478Z,4.23
2018-06-16T18:29:59.704Z,5.47
2018-06-16T18:32:30.240Z,4.63
2018-06-16T18:35:00.670Z,6.00
2018-06-16T18:37:30.588Z,5.87
2018-06-16T18:40:01.327Z,6.47
2018-06-16T18:42:31.847Z,5.27
2018-06-16T18:45:01.874Z,4.80
2018-06-16T18:47:31.980Z,4.20
2018-06-16T18:50:02.425Z,5.03
2018-06-16T18:52:32.539Z,4.00
2018-06-16T18:55:02.669Z,4.80
2018-06-16T18:57:33.199Z,4.37
2018-06-16T19:00:02.911Z,3.90
2018-06-16T19:02:33.232Z,6.93
2018-06-16T19:05:03.668Z,3.87
2018-06-16T19:07:33.891Z,4.43
2018-06-16T19:10:04.425Z,5.77
2018-06-16T19:12:34.129Z,3.70
2018-06-16T19:15:43.597Z,3.70
2018-06-16T19:18:14.514Z,4.27
2018-06-16T19:20:44.446Z,5.70
2018-06-16T19:23:14.920Z,4.43
2018-06-16T19:25:45.700Z,3.50
2018-06-16T19:28:15.924Z,5.53
2018-06-16T19:30:46.257Z,5.57
2018-06-16T19:33:17.294Z,4.43
2018-06-16T19:35:52.434Z,3.60
2018-06-16T19:38:33.953Z,3.70
2018-06-16T19:41:10.708Z,3.30
2018-06-16T19:43:47.076Z,4.67
2018-06-16T19:46:20.876Z,3.90
2018-06-16T19:48:54.795Z,3.37
2018-06-16T19:51:29.721Z,4.63
2018-06-16T19:54:05.170Z,3.47
2018-06-16T19:56:40.922Z,3.30
2018-06-16T19:59:23.749Z,4.47
2018-06-16T20:02:01.988Z,3.70
2018-06-16T20:04:45.982Z,3.67
2018-06-16T20:07:23.600Z,3.40
2018-06-16T20:10:03.035Z,3.80
2018-06-16T20:12:39.109Z,3.43
2018-06-16T20:18:47.546Z,4.70
2018-06-16T20:21:28.999Z,3.20
2018-06-16T20:24:02.019Z,3.53
2018-06-16T20:29:54.242Z,3.40
2018-06-16T20:32:31.175Z,3.40
2018-06-16T20:35:09.586Z,3.40
2018-06-16T20:37:45.656Z,3.57
2018-06-16T20:40:25.093Z,3.90
2018-06-16T20:43:01.039Z,3.80
2018-06-16T20:45:39.165Z,3.60
2018-06-16T20:48:18.901Z,3.50
2018-06-16T20:50:54.032Z,4.40
2018-06-16T20:53:29.064Z,3.80
2018-06-16T20:56:05.038Z,5.07
2018-06-16T20:58:36.591Z,3.50
2018-06-16T21:01:09.282Z,3.50
2018-06-16T21:03:52.433Z,5.00
2018-06-16T21:06:26.721Z,3.10
2018-06-16T21:08:57.766Z,3.33
2018-06-16T21:11:33.008Z,4.20
2018-06-16T21:14:03.238Z,4.00
2018-06-16T21:20:15.777Z,3.47
2018-06-16T21:22:53.066Z,3.43
2018-06-16T21:25:36.802Z,3.60
2018-06-16T21:28:10.814Z,4.17
2018-06-16T21:30:48.413Z,5.17
2018-06-16T21:33:20.683Z,3.37
2018-06-16T21:35:54.082Z,3.00
2018-06-16T21:38:31.163Z,3.47
2018-06-16T21:41:10.086Z,4.50
2018-06-16T21:43:43.299Z,3.33
2018-06-16T21:46:17.095Z,3.37
2018-06-16T21:48:53.681Z,3.87
2018-06-16T21:51:26.563Z,3.43
2018-06-16T21:54:03.541Z,4.60
2018-06-16T21:56:44.935Z,3.40
2018-06-16T21:59:25.104Z,4.13
2018-06-16T22:01:57.150Z,3.60
2018-06-16T22:04:40.793Z,3.43
2018-06-16T22:07:11.323Z,3.57
2018-06-16T22:09:47.493Z,3.10
2018-06-16T22:12:30.122Z,3.40
2018-06-16T22:15:02.165Z,4.47
2018-06-16T22:17:41.609Z,4.80
2018-06-16T22:20:18.286Z,3.40
2018-06-16T22:22:53.836Z,4.77
2018-06-16T22:25:27.540Z,3.83
2018-06-16T22:28:07.082Z,3.27
2018-06-16T22:30:39.928Z,4.13
2018-06-16T22:33:17.472Z,3.40
2018-06-16T22:35:50.361Z,3.40
2018-06-16T22:38:23.757Z,3.60
2018-06-16T22:41:00.323Z,3.40
2018-06-16T22:43:34.951Z,3.87
2018-06-16T22:46:12.965Z,3.30
2018-06-16T22:48:54.140Z,3.20
2018-06-16T22:51:35.832Z,3.53
2018-06-16T22:54:06.364Z,3.33
2018-06-16T22:56:41.708Z,4.30
2018-06-16T22:59:20.944Z,3.27
2018-06-16T23:01:56.397Z,4.17
2018-06-16T23:04:29.077Z,4.53
2018-06-16T23:07:02.675Z,3.07
2018-06-16T23:09:36.689Z,3.50
2018-06-16T23:12:07.733Z,4.57
2018-06-16T23:14:38.877Z,3.60
2018-06-16T23:17:08.694Z,3.30
2018-06-16T23:19:45.882Z,3.33
2018-06-16T23:22:26.141Z,3.27
2018-06-16T23:24:57.902Z,3.50
2018-06-16T23:27:33.200Z,3.33
2018-06-16T23:30:06.951Z,3.10
2018-06-16T23:32:44.342Z,3.13
2018-06-16T23:35:22.869Z,3.57
2018-06-16T23:37:58.003Z,3.23
2018-06-16T23:40:35.086Z,3.27
2018-06-16T23:43:16.686Z,3.30
2018-06-16T23:45:49.462Z,2.73
2018-06-16T23:48:28.909Z,3.57
2018-06-16T23:51:03.940Z,4.53
2018-06-16T23:53:49.943Z,3.63
2018-06-16T23:56:22.923Z,3.63
2018-06-16T23:58:59.087Z,3.63
